sensor_id;sensor_type;location;lat;lon;timestamp;P1;durP1;ratioP1;P2;durP2;ratioP2
54865;SDS011;40754;52.094;4.328;2022-08-19T00:01:40;4.70;;;3.50;;
54865;SDS011;40754;52.094;4.328;2022-08-19T00:04:08;4.75;;;3.20;;
54865;SDS011;40754;52.094;4.328;2022-08-19T00:06:37;6.72;;;3.75;;
54865;SDS011;40754;52.094;4.328;2022-08-19T00:09:05;7.18;;;4.05;;
54865;SDS011;40754;52.094;4.328;2022-08-19T00:11:32;5.28;;;3.60;;
54865;SDS011;40754;52.094;4.328;2022-08-19T00:14:01;8.85;;;3.40;;
54865;SDS011;40754;52.094;4.328;2022-08-19T00:16:27;4.93;;;3.25;;
54865;SDS011;40754;52.094;4.328;2022-08-19T00:18:53;6.60;;;3.10;;
54865;SDS011;40754;52.094;4.328;2022-08-19T00:21:20;3.78;;;3.38;;
54865;SDS011;40754;52.094;4.328;2022-08-19T00:23:45;5.60;;;3.53;;
54865;SDS011;40754;52.094;4.328;2022-08-19T00:26:11;5.07;;;3.30;;
54865;SDS011;40754;52.094;4.328;2022-08-19T00:28:37;4.38;;;3.63;;
54865;SDS011;40754;52.094;4.328;2022-08-19T00:31:03;11.02;;;3.40;;
54865;SDS011;40754;52.094;4.328;2022-08-19T00:33:29;5.55;;;3.60;;
54865;SDS011;40754;52.094;4.328;2022-08-19T00:35:59;7.07;;;3.55;;
54865;SDS011;40754;52.094;4.328;2022-08-19T00:38:28;6.13;;;3.90;;
54865;SDS011;40754;52.094;4.328;2022-08-19T00:40:54;8.07;;;3.83;;
54865;SDS011;40754;52.094;4.328;2022-08-19T00:43:20;3.55;;;3.25;;
54865;SDS011;40754;52.094;4.328;2022-08-19T00:45:47;3.95;;;3.38;;
54865;SDS011;40754;52.094;4.328;2022-08-19T00:48:14;5.57;;;3.97;;
54865;SDS011;40754;52.094;4.328;2022-08-19T00:50:41;8.23;;;3.83;;
54865;SDS011;40754;52.094;4.328;2022-08-19T00:53:09;5.53;;;4.15;;
54865;SDS011;40754;52.094;4.328;2022-08-19T00:55:35;7.13;;;3.88;;
54865;SDS011;40754;52.094;4.328;2022-08-19T00:58:07;5.70;;;4.10;;
54865;SDS011;40754;52.094;4.328;2022-08-19T01:00:35;5.68;;;4.20;;
54865;SDS011;40754;52.094;4.328;2022-08-19T01:03:10;6.45;;;3.90;;
54865;SDS011;40754;52.094;4.328;2022-08-19T01:05:39;4.85;;;3.50;;
54865;SDS011;40754;52.094;4.328;2022-08-19T01:08:06;5.35;;;3.90;;
54865;SDS011;40754;52.094;4.328;2022-08-19T01:10:35;6.32;;;4.00;;
54865;SDS011;40754;52.094;4.328;2022-08-19T01:13:03;6.75;;;4.05;;
54865;SDS011;40754;52.094;4.328;2022-08-19T01:15:31;8.15;;;3.75;;
54865;SDS011;40754;52.094;4.328;2022-08-19T01:17:59;8.75;;;6.30;;
54865;SDS011;40754;52.094;4.328;2022-08-19T01:20:28;11.68;;;4.70;;
54865;SDS011;40754;52.094;4.328;2022-08-19T01:22:55;5.88;;;4.47;;
54865;SDS011;40754;52.094;4.328;2022-08-19T01:25:24;8.07;;;4.47;;
54865;SDS011;40754;52.094;4.328;2022-08-19T01:28:22;7.38;;;4.78;;
54865;SDS011;40754;52.094;4.328;2022-08-19T01:30:51;7.15;;;4.25;;
54865;SDS011;40754;52.094;4.328;2022-08-19T01:33:17;9.02;;;4.90;;
54865;SDS011;40754;52.094;4.328;2022-08-19T01:35:44;8.27;;;4.97;;
54865;SDS011;40754;52.094;4.328;2022-08-19T01:38:19;7.95;;;5.13;;
54865;SDS011;40754;52.094;4.328;2022-08-19T01:40:49;12.05;;;6.53;;
54865;SDS011;40754;52.094;4.328;2022-08-19T01:43:15;12.38;;;9.00;;
54865;SDS011;40754;52.094;4.328;2022-08-19T01:45:41;23.85;;;18.25;;
54865;SDS011;40754;52.094;4.328;2022-08-19T01:48:07;24.77;;;16.67;;
54865;SDS011;40754;52.094;4.328;2022-08-19T01:50:34;25.58;;;17.33;;
54865;SDS011;40754;52.094;4.328;2022-08-19T01:53:01;21.67;;;16.33;;
54865;SDS011;40754;52.094;4.328;2022-08-19T01:55:29;21.08;;;17.27;;
54865;SDS011;40754;52.094;4.328;2022-08-19T01:57:55;29.85;;;18.55;;
54865;SDS011;40754;52.094;4.328;2022-08-19T02:00:23;27.08;;;18.75;;
54865;SDS011;40754;52.094;4.328;2022-08-19T02:02:51;29.10;;;20.63;;
54865;SDS011;40754;52.094;4.328;2022-08-19T02:05:16;31.17;;;21.75;;
54865;SDS011;40754;52.094;4.328;2022-08-19T02:07:43;34.03;;;23.75;;
54865;SDS011;40754;52.094;4.328;2022-08-19T02:10:11;34.97;;;24.48;;
54865;SDS011;40754;52.094;4.328;2022-08-19T02:12:39;32.22;;;23.42;;
54865;SDS011;40754;52.094;4.328;2022-08-19T02:15:05;35.45;;;24.35;;
54865;SDS011;40754;52.094;4.328;2022-08-19T02:17:32;35.88;;;23.70;;
54865;SDS011;40754;52.094;4.328;2022-08-19T02:19:58;31.70;;;23.95;;
54865;SDS011;40754;52.094;4.328;2022-08-19T02:22:24;32.55;;;23.10;;
54865;SDS011;40754;52.094;4.328;2022-08-19T02:24:50;31.65;;;23.15;;
54865;SDS011;40754;52.094;4.328;2022-08-19T02:27:18;32.88;;;23.90;;
54865;SDS011;40754;52.094;4.328;2022-08-19T02:29:48;31.00;;;23.08;;
54865;SDS011;40754;52.094;4.328;2022-08-19T02:32:14;39.30;;;24.85;;
54865;SDS011;40754;52.094;4.328;2022-08-19T02:34:41;33.33;;;22.10;;
54865;SDS011;40754;52.094;4.328;2022-08-19T02:37:06;37.15;;;22.92;;
54865;SDS011;40754;52.094;4.328;2022-08-19T02:39:52;36.35;;;23.90;;
54865;SDS011;40754;52.094;4.328;2022-08-19T02:42:17;34.53;;;23.00;;
54865;SDS011;40754;52.094;4.328;2022-08-19T02:44:43;35.85;;;23.65;;
54865;SDS011;40754;52.094;4.328;2022-08-19T02:47:09;32.10;;;23.17;;
54865;SDS011;40754;52.094;4.328;2022-08-19T02:49:35;36.72;;;23.60;;
54865;SDS011;40754;52.094;4.328;2022-08-19T02:52:00;32.17;;;23.05;;
54865;SDS011;40754;52.094;4.328;2022-08-19T02:54:26;38.92;;;21.33;;
54865;SDS011;40754;52.094;4.328;2022-08-19T02:56:52;35.25;;;22.08;;
54865;SDS011;40754;52.094;4.328;2022-08-19T02:59:17;38.35;;;22.33;;
54865;SDS011;40754;52.094;4.328;2022-08-19T03:01:43;36.45;;;25.45;;
54865;SDS011;40754;52.094;4.328;2022-08-19T03:04:09;33.70;;;23.55;;
54865;SDS011;40754;52.094;4.328;2022-08-19T03:06:37;38.33;;;24.40;;
54865;SDS011;40754;52.094;4.328;2022-08-19T03:09:03;42.50;;;25.85;;
54865;SDS011;40754;52.094;4.328;2022-08-19T03:11:30;36.28;;;25.65;;
54865;SDS011;40754;52.094;4.328;2022-08-19T03:13:57;41.63;;;24.58;;
54865;SDS011;40754;52.094;4.328;2022-08-19T03:16:24;40.20;;;24.08;;
54865;SDS011;40754;52.094;4.328;2022-08-19T03:18:51;37.60;;;23.80;;
54865;SDS011;40754;52.094;4.328;2022-08-19T03:21:19;38.17;;;24.77;;
54865;SDS011;40754;52.094;4.328;2022-08-19T03:23:49;40.00;;;25.33;;
54865;SDS011;40754;52.094;4.328;2022-08-19T03:26:14;43.13;;;26.10;;
54865;SDS011;40754;52.094;4.328;2022-08-19T03:28:44;41.00;;;24.48;;
54865;SDS011;40754;52.094;4.328;2022-08-19T03:31:15;36.38;;;24.23;;
54865;SDS011;40754;52.094;4.328;2022-08-19T03:33:48;33.58;;;23.02;;
54865;SDS011;40754;52.094;4.328;2022-08-19T03:36:24;36.45;;;23.63;;
54865;SDS011;40754;52.094;4.328;2022-08-19T03:38:52;39.28;;;24.92;;
54865;SDS011;40754;52.094;4.328;2022-08-19T03:41:24;43.95;;;24.83;;
54865;SDS011;40754;52.094;4.328;2022-08-19T03:43:51;41.25;;;24.98;;
54865;SDS011;40754;52.094;4.328;2022-08-19T03:46:20;38.05;;;25.90;;
54865;SDS011;40754;52.094;4.328;2022-08-19T03:48:48;39.40;;;25.83;;
54865;SDS011;40754;52.094;4.328;2022-08-19T03:51:15;45.45;;;28.02;;
54865;SDS011;40754;52.094;4.328;2022-08-19T03:53:42;41.53;;;27.33;;
54865;SDS011;40754;52.094;4.328;2022-08-19T03:56:09;45.65;;;27.67;;
54865;SDS011;40754;52.094;4.328;2022-08-19T03:58:35;46.47;;;28.20;;
54865;SDS011;40754;52.094;4.328;2022-08-19T04:01:02;47.47;;;27.95;;
54865;SDS011;40754;52.094;4.328;2022-08-19T04:03:33;47.08;;;30.75;;
54865;SDS011;40754;52.094;4.328;2022-08-19T04:06:09;55.00;;;32.20;;
54865;SDS011;40754;52.094;4.328;2022-08-19T04:08:39;55.58;;;32.75;;
54865;SDS011;40754;52.094;4.328;2022-08-19T04:11:09;55.17;;;32.67;;
54865;SDS011;40754;52.094;4.328;2022-08-19T04:13:36;60.75;;;33.90;;
54865;SDS011;40754;52.094;4.328;2022-08-19T04:16:03;58.35;;;33.55;;
54865;SDS011;40754;52.094;4.328;2022-08-19T04:18:29;63.38;;;34.65;;
54865;SDS011;40754;52.094;4.328;2022-08-19T04:20:55;61.80;;;35.63;;
54865;SDS011;40754;52.094;4.328;2022-08-19T04:23:21;56.50;;;35.75;;
54865;SDS011;40754;52.094;4.328;2022-08-19T04:25:47;63.70;;;37.25;;
54865;SDS011;40754;52.094;4.328;2022-08-19T04:28:13;65.75;;;37.08;;
54865;SDS011;40754;52.094;4.328;2022-08-19T04:30:46;66.53;;;36.75;;
54865;SDS011;40754;52.094;4.328;2022-08-19T04:33:17;63.92;;;36.30;;
54865;SDS011;40754;52.094;4.328;2022-08-19T04:35:46;58.30;;;35.70;;
54865;SDS011;40754;52.094;4.328;2022-08-19T04:38:13;63.72;;;37.95;;
54865;SDS011;40754;52.094;4.328;2022-08-19T04:40:43;72.20;;;38.45;;
54865;SDS011;40754;52.094;4.328;2022-08-19T04:43:29;69.82;;;37.83;;
54865;SDS011;40754;52.094;4.328;2022-08-19T04:45:55;63.80;;;37.80;;
54865;SDS011;40754;52.094;4.328;2022-08-19T04:48:21;72.47;;;38.13;;
54865;SDS011;40754;52.094;4.328;2022-08-19T04:50:50;61.13;;;35.67;;
54865;SDS011;40754;52.094;4.328;2022-08-19T04:53:29;72.25;;;36.53;;
54865;SDS011;40754;52.094;4.328;2022-08-19T04:55:57;63.67;;;35.53;;
54865;SDS011;40754;52.094;4.328;2022-08-19T04:58:26;73.05;;;37.35;;
54865;SDS011;40754;52.094;4.328;2022-08-19T05:00:52;74.03;;;38.13;;
54865;SDS011;40754;52.094;4.328;2022-08-19T05:03:19;65.53;;;37.35;;
54865;SDS011;40754;52.094;4.328;2022-08-19T05:05:45;67.20;;;36.35;;
54865;SDS011;40754;52.094;4.328;2022-08-19T05:08:13;63.00;;;37.25;;
54865;SDS011;40754;52.094;4.328;2022-08-19T05:10:44;64.80;;;35.53;;
54865;SDS011;40754;52.094;4.328;2022-08-19T05:13:12;65.20;;;35.70;;
54865;SDS011;40754;52.094;4.328;2022-08-19T05:15:38;68.40;;;36.95;;
54865;SDS011;40754;52.094;4.328;2022-08-19T05:18:03;66.72;;;36.08;;
54865;SDS011;40754;52.094;4.328;2022-08-19T05:20:48;69.20;;;36.38;;
54865;SDS011;40754;52.094;4.328;2022-08-19T05:23:32;61.38;;;35.00;;
54865;SDS011;40754;52.094;4.328;2022-08-19T05:25:57;66.88;;;35.80;;
54865;SDS011;40754;52.094;4.328;2022-08-19T05:28:23;69.00;;;34.72;;
54865;SDS011;40754;52.094;4.328;2022-08-19T05:30:48;63.65;;;34.15;;
54865;SDS011;40754;52.094;4.328;2022-08-19T05:33:15;60.30;;;34.83;;
54865;SDS011;40754;52.094;4.328;2022-08-19T05:35:41;64.25;;;33.65;;
54865;SDS011;40754;52.094;4.328;2022-08-19T05:38:08;68.95;;;34.08;;
54865;SDS011;40754;52.094;4.328;2022-08-19T05:40:35;62.20;;;33.92;;
54865;SDS011;40754;52.094;4.328;2022-08-19T05:43:05;58.08;;;32.13;;
54865;SDS011;40754;52.094;4.328;2022-08-19T05:45:32;64.60;;;33.38;;
54865;SDS011;40754;52.094;4.328;2022-08-19T05:47:58;63.35;;;33.10;;
54865;SDS011;40754;52.094;4.328;2022-08-19T05:50:24;64.47;;;31.77;;
54865;SDS011;40754;52.094;4.328;2022-08-19T05:52:59;63.83;;;33.47;;
54865;SDS011;40754;52.094;4.328;2022-08-19T05:55:25;58.75;;;31.95;;
54865;SDS011;40754;52.094;4.328;2022-08-19T05:57:53;60.45;;;31.38;;
54865;SDS011;40754;52.094;4.328;2022-08-19T06:00:19;60.55;;;31.13;;
54865;SDS011;40754;52.094;4.328;2022-08-19T06:02:45;55.05;;;29.65;;
54865;SDS011;40754;52.094;4.328;2022-08-19T06:05:10;55.03;;;30.65;;
54865;SDS011;40754;52.094;4.328;2022-08-19T06:07:36;53.83;;;30.27;;
54865;SDS011;40754;52.094;4.328;2022-08-19T06:10:04;50.95;;;29.17;;
54865;SDS011;40754;52.094;4.328;2022-08-19T06:12:31;49.75;;;29.08;;
54865;SDS011;40754;52.094;4.328;2022-08-19T06:15:08;50.80;;;27.85;;
54865;SDS011;40754;52.094;4.328;2022-08-19T06:17:34;50.65;;;28.63;;
54865;SDS011;40754;52.094;4.328;2022-08-19T06:20:01;57.58;;;26.90;;
54865;SDS011;40754;52.094;4.328;2022-08-19T06:22:28;50.28;;;25.92;;
54865;SDS011;40754;52.094;4.328;2022-08-19T06:24:54;47.10;;;25.05;;
54865;SDS011;40754;52.094;4.328;2022-08-19T06:27:21;42.85;;;24.45;;
54865;SDS011;40754;52.094;4.328;2022-08-19T06:29:46;42.85;;;24.60;;
54865;SDS011;40754;52.094;4.328;2022-08-19T06:32:13;44.53;;;24.25;;
54865;SDS011;40754;52.094;4.328;2022-08-19T06:34:41;44.28;;;24.60;;
54865;SDS011;40754;52.094;4.328;2022-08-19T06:37:07;36.92;;;21.88;;
54865;SDS011;40754;52.094;4.328;2022-08-19T06:39:35;45.30;;;23.33;;
54865;SDS011;40754;52.094;4.328;2022-08-19T06:42:03;37.15;;;20.92;;
54865;SDS011;40754;52.094;4.328;2022-08-19T06:44:32;31.55;;;19.95;;
54865;SDS011;40754;52.094;4.328;2022-08-19T06:47:04;35.78;;;19.58;;
54865;SDS011;40754;52.094;4.328;2022-08-19T06:49:32;42.28;;;19.70;;
54865;SDS011;40754;52.094;4.328;2022-08-19T06:51:58;39.63;;;19.38;;
54865;SDS011;40754;52.094;4.328;2022-08-19T06:54:23;34.45;;;18.27;;
54865;SDS011;40754;52.094;4.328;2022-08-19T06:56:50;39.78;;;16.88;;
54865;SDS011;40754;52.094;4.328;2022-08-19T06:59:17;31.42;;;17.15;;
54865;SDS011;40754;52.094;4.328;2022-08-19T07:01:48;30.02;;;15.80;;
54865;SDS011;40754;52.094;4.328;2022-08-19T07:04:15;30.25;;;15.68;;
54865;SDS011;40754;52.094;4.328;2022-08-19T07:06:43;28.65;;;14.35;;
54865;SDS011;40754;52.094;4.328;2022-08-19T07:09:09;29.73;;;14.30;;
54865;SDS011;40754;52.094;4.328;2022-08-19T07:11:36;29.38;;;13.82;;
54865;SDS011;40754;52.094;4.328;2022-08-19T07:14:03;26.35;;;14.13;;
54865;SDS011;40754;52.094;4.328;2022-08-19T07:16:29;25.77;;;13.60;;
54865;SDS011;40754;52.094;4.328;2022-08-19T07:18:54;25.23;;;14.23;;
54865;SDS011;40754;52.094;4.328;2022-08-19T07:21:25;25.17;;;13.13;;
54865;SDS011;40754;52.094;4.328;2022-08-19T07:23:55;28.65;;;13.98;;
54865;SDS011;40754;52.094;4.328;2022-08-19T07:26:29;24.63;;;11.00;;
54865;SDS011;40754;52.094;4.328;2022-08-19T07:28:57;18.85;;;8.35;;
54865;SDS011;40754;52.094;4.328;2022-08-19T07:31:25;19.23;;;7.78;;
54865;SDS011;40754;52.094;4.328;2022-08-19T07:33:52;18.08;;;7.15;;
54865;SDS011;40754;52.094;4.328;2022-08-19T07:36:21;16.80;;;7.63;;
54865;SDS011;40754;52.094;4.328;2022-08-19T07:38:50;18.55;;;7.00;;
54865;SDS011;40754;52.094;4.328;2022-08-19T07:41:18;15.23;;;6.30;;
54865;SDS011;40754;52.094;4.328;2022-08-19T07:43:47;17.83;;;6.65;;
54865;SDS011;40754;52.094;4.328;2022-08-19T07:46:13;15.15;;;7.00;;
54865;SDS011;40754;52.094;4.328;2022-08-19T07:48:39;16.00;;;7.50;;
54865;SDS011;40754;52.094;4.328;2022-08-19T07:51:06;15.93;;;7.85;;
54865;SDS011;40754;52.094;4.328;2022-08-19T07:53:33;13.95;;;6.68;;
54865;SDS011;40754;52.094;4.328;2022-08-19T07:56:00;12.00;;;6.70;;
54865;SDS011;40754;52.094;4.328;2022-08-19T07:58:29;14.07;;;6.47;;
54865;SDS011;40754;52.094;4.328;2022-08-19T08:00:59;14.73;;;6.78;;
54865;SDS011;40754;52.094;4.328;2022-08-19T08:03:26;16.58;;;6.88;;
54865;SDS011;40754;52.094;4.328;2022-08-19T08:06:11;13.80;;;6.10;;
54865;SDS011;40754;52.094;4.328;2022-08-19T08:08:56;20.25;;;6.65;;
54865;SDS011;40754;52.094;4.328;2022-08-19T08:11:40;11.07;;;6.45;;
54865;SDS011;40754;52.094;4.328;2022-08-19T08:14:08;16.17;;;6.50;;
54865;SDS011;40754;52.094;4.328;2022-08-19T08:16:37;12.05;;;6.80;;
54865;SDS011;40754;52.094;4.328;2022-08-19T08:19:11;16.20;;;6.30;;
54865;SDS011;40754;52.094;4.328;2022-08-19T08:21:39;12.52;;;5.40;;
54865;SDS011;40754;52.094;4.328;2022-08-19T08:24:06;12.13;;;5.82;;
54865;SDS011;40754;52.094;4.328;2022-08-19T08:26:31;11.98;;;5.65;;
54865;SDS011;40754;52.094;4.328;2022-08-19T08:28:57;14.85;;;6.38;;
54865;SDS011;40754;52.094;4.328;2022-08-19T08:31:23;13.68;;;5.80;;
54865;SDS011;40754;52.094;4.328;2022-08-19T08:33:52;14.45;;;5.35;;
54865;SDS011;40754;52.094;4.328;2022-08-19T08:36:17;10.35;;;5.30;;
54865;SDS011;40754;52.094;4.328;2022-08-19T08:38:44;14.80;;;6.13;;
54865;SDS011;40754;52.094;4.328;2022-08-19T08:43:45;16.17;;;5.35;;
54865;SDS011;40754;52.094;4.328;2022-08-19T08:46:15;12.85;;;5.00;;
54865;SDS011;40754;52.094;4.328;2022-08-19T08:51:48;16.42;;;4.80;;
54865;SDS011;40754;52.094;4.328;2022-08-19T08:54:18;11.80;;;4.78;;
54865;SDS011;40754;52.094;4.328;2022-08-19T08:56:46;15.73;;;4.95;;
54865;SDS011;40754;52.094;4.328;2022-08-19T08:59:33;11.65;;;5.22;;
54865;SDS011;40754;52.094;4.328;2022-08-19T09:02:00;11.57;;;4.53;;
54865;SDS011;40754;52.094;4.328;2022-08-19T09:04:27;10.15;;;4.93;;
54865;SDS011;40754;52.094;4.328;2022-08-19T09:07:02;8.88;;;4.90;;
54865;SDS011;40754;52.094;4.328;2022-08-19T09:09:47;8.25;;;4.25;;
54865;SDS011;40754;52.094;4.328;2022-08-19T09:12:27;13.35;;;3.83;;
54865;SDS011;40754;52.094;4.328;2022-08-19T09:15:12;14.25;;;4.10;;
54865;SDS011;40754;52.094;4.328;2022-08-19T09:17:38;10.18;;;4.15;;
54865;SDS011;40754;52.094;4.328;2022-08-19T09:20:21;11.40;;;3.30;;
54865;SDS011;40754;52.094;4.328;2022-08-19T09:23:12;8.80;;;3.80;;
54865;SDS011;40754;52.094;4.328;2022-08-19T09:25:38;12.02;;;4.47;;
54865;SDS011;40754;52.094;4.328;2022-08-19T09:28:08;13.40;;;3.60;;
54865;SDS011;40754;52.094;4.328;2022-08-19T09:30:34;12.98;;;4.15;;
54865;SDS011;40754;52.094;4.328;2022-08-19T09:33:04;8.30;;;3.42;;
54865;SDS011;40754;52.094;4.328;2022-08-19T09:35:31;14.10;;;3.33;;
54865;SDS011;40754;52.094;4.328;2022-08-19T09:37:58;8.75;;;3.63;;
54865;SDS011;40754;52.094;4.328;2022-08-19T09:40:30;8.48;;;3.92;;
54865;SDS011;40754;52.094;4.328;2022-08-19T09:42:59;8.70;;;3.63;;
54865;SDS011;40754;52.094;4.328;2022-08-19T09:45:27;8.93;;;3.70;;
54865;SDS011;40754;52.094;4.328;2022-08-19T09:47:54;10.68;;;3.60;;
54865;SDS011;40754;52.094;4.328;2022-08-19T09:50:20;8.15;;;3.70;;
54865;SDS011;40754;52.094;4.328;2022-08-19T09:52:46;8.23;;;3.42;;
54865;SDS011;40754;52.094;4.328;2022-08-19T09:55:12;9.82;;;4.38;;
54865;SDS011;40754;52.094;4.328;2022-08-19T09:57:38;7.43;;;3.50;;
54865;SDS011;40754;52.094;4.328;2022-08-19T10:00:05;7.03;;;3.30;;
54865;SDS011;40754;52.094;4.328;2022-08-19T10:02:32;4.22;;;2.80;;
54865;SDS011;40754;52.094;4.328;2022-08-19T10:04:58;6.85;;;3.13;;
54865;SDS011;40754;52.094;4.328;2022-08-19T10:07:42;8.82;;;3.05;;
54865;SDS011;40754;52.094;4.328;2022-08-19T10:10:08;5.47;;;2.72;;
54865;SDS011;40754;52.094;4.328;2022-08-19T10:12:34;8.90;;;2.60;;
54865;SDS011;40754;52.094;4.328;2022-08-19T10:15:00;5.18;;;2.60;;
54865;SDS011;40754;52.094;4.328;2022-08-19T10:17:26;6.65;;;3.10;;
54865;SDS011;40754;52.094;4.328;2022-08-19T10:19:52;6.60;;;2.50;;
54865;SDS011;40754;52.094;4.328;2022-08-19T10:22:18;6.72;;;2.67;;
54865;SDS011;40754;52.094;4.328;2022-08-19T10:24:45;10.23;;;2.75;;
54865;SDS011;40754;52.094;4.328;2022-08-19T10:27:11;7.10;;;2.58;;
54865;SDS011;40754;52.094;4.328;2022-08-19T10:29:38;8.55;;;3.05;;
54865;SDS011;40754;52.094;4.328;2022-08-19T10:32:05;4.18;;;2.40;;
54865;SDS011;40754;52.094;4.328;2022-08-19T10:34:32;7.40;;;2.30;;
54865;SDS011;40754;52.094;4.328;2022-08-19T10:37:00;8.57;;;3.13;;
54865;SDS011;40754;52.094;4.328;2022-08-19T10:39:31;5.90;;;2.55;;
54865;SDS011;40754;52.094;4.328;2022-08-19T10:41:58;7.82;;;2.65;;
54865;SDS011;40754;52.094;4.328;2022-08-19T10:44:24;5.07;;;2.38;;
54865;SDS011;40754;52.094;4.328;2022-08-19T10:46:50;10.55;;;2.55;;
54865;SDS011;40754;52.094;4.328;2022-08-19T10:49:17;6.32;;;2.22;;
54865;SDS011;40754;52.094;4.328;2022-08-19T10:51:44;5.68;;;2.22;;
54865;SDS011;40754;52.094;4.328;2022-08-19T10:54:28;7.07;;;2.53;;
54865;SDS011;40754;52.094;4.328;2022-08-19T10:57:13;6.30;;;2.25;;
54865;SDS011;40754;52.094;4.328;2022-08-19T10:59:43;6.35;;;2.28;;
54865;SDS011;40754;52.094;4.328;2022-08-19T11:02:11;4.80;;;2.22;;
54865;SDS011;40754;52.094;4.328;2022-08-19T11:04:40;4.05;;;2.20;;
54865;SDS011;40754;52.094;4.328;2022-08-19T11:07:06;4.28;;;2.10;;
54865;SDS011;40754;52.094;4.328;2022-08-19T11:09:36;7.63;;;2.70;;
54865;SDS011;40754;52.094;4.328;2022-08-19T11:12:03;4.38;;;2.08;;
54865;SDS011;40754;52.094;4.328;2022-08-19T11:14:29;5.28;;;2.13;;
54865;SDS011;40754;52.094;4.328;2022-08-19T11:16:56;4.30;;;2.40;;
54865;SDS011;40754;52.094;4.328;2022-08-19T11:19:22;7.28;;;2.40;;
54865;SDS011;40754;52.094;4.328;2022-08-19T11:21:49;5.28;;;2.63;;
54865;SDS011;40754;52.094;4.328;2022-08-19T11:24:25;6.45;;;2.42;;
54865;SDS011;40754;52.094;4.328;2022-08-19T11:26:53;7.25;;;2.50;;
54865;SDS011;40754;52.094;4.328;2022-08-19T11:29:24;10.30;;;2.40;;
54865;SDS011;40754;52.094;4.328;2022-08-19T11:31:50;3.67;;;1.98;;
54865;SDS011;40754;52.094;4.328;2022-08-19T11:34:18;6.40;;;2.75;;
54865;SDS011;40754;52.094;4.328;2022-08-19T11:36:46;9.05;;;2.53;;
54865;SDS011;40754;52.094;4.328;2022-08-19T11:39:14;6.40;;;2.40;;
54865;SDS011;40754;52.094;4.328;2022-08-19T11:41:41;3.58;;;2.47;;
54865;SDS011;40754;52.094;4.328;2022-08-19T11:44:08;9.52;;;2.75;;
54865;SDS011;40754;52.094;4.328;2022-08-19T11:46:35;6.38;;;2.45;;
54865;SDS011;40754;52.094;4.328;2022-08-19T11:49:02;5.03;;;2.80;;
54865;SDS011;40754;52.094;4.328;2022-08-19T11:51:28;6.75;;;2.33;;
54865;SDS011;40754;52.094;4.328;2022-08-19T11:53:55;7.82;;;2.70;;
54865;SDS011;40754;52.094;4.328;2022-08-19T11:56:21;7.75;;;2.92;;
54865;SDS011;40754;52.094;4.328;2022-08-19T11:58:48;4.22;;;1.83;;
54865;SDS011;40754;52.094;4.328;2022-08-19T12:01:15;4.05;;;2.40;;
54865;SDS011;40754;52.094;4.328;2022-08-19T12:03:47;4.47;;;2.43;;
54865;SDS011;40754;52.094;4.328;2022-08-19T12:06:19;10.05;;;2.67;;
54865;SDS011;40754;52.094;4.328;2022-08-19T12:08:51;4.13;;;2.38;;
54865;SDS011;40754;52.094;4.328;2022-08-19T12:11:17;5.75;;;2.70;;
54865;SDS011;40754;52.094;4.328;2022-08-19T12:13:43;3.72;;;2.60;;
54865;SDS011;40754;52.094;4.328;2022-08-19T12:16:16;5.28;;;2.90;;
54865;SDS011;40754;52.094;4.328;2022-08-19T12:18:43;4.22;;;2.40;;
54865;SDS011;40754;52.094;4.328;2022-08-19T12:21:14;4.32;;;2.30;;
54865;SDS011;40754;52.094;4.328;2022-08-19T12:23:42;4.18;;;2.17;;
54865;SDS011;40754;52.094;4.328;2022-08-19T12:26:09;6.07;;;2.60;;
54865;SDS011;40754;52.094;4.328;2022-08-19T12:28:36;5.55;;;2.33;;
54865;SDS011;40754;52.094;4.328;2022-08-19T12:31:06;5.72;;;2.40;;
54865;SDS011;40754;52.094;4.328;2022-08-19T12:33:32;3.42;;;2.15;;
54865;SDS011;40754;52.094;4.328;2022-08-19T12:36:04;6.57;;;2.40;;
54865;SDS011;40754;52.094;4.328;2022-08-19T12:38:35;5.25;;;2.15;;
54865;SDS011;40754;52.094;4.328;2022-08-19T12:41:02;5.47;;;2.40;;
54865;SDS011;40754;52.094;4.328;2022-08-19T12:43:31;3.90;;;2.00;;
54865;SDS011;40754;52.094;4.328;2022-08-19T12:45:57;3.83;;;2.00;;
54865;SDS011;40754;52.094;4.328;2022-08-19T12:48:23;3.53;;;2.58;;
54865;SDS011;40754;52.094;4.328;2022-08-19T12:50:49;4.35;;;2.50;;
54865;SDS011;40754;52.094;4.328;2022-08-19T12:53:15;6.20;;;2.38;;
54865;SDS011;40754;52.094;4.328;2022-08-19T12:55:41;6.13;;;2.90;;
54865;SDS011;40754;52.094;4.328;2022-08-19T12:58:08;3.95;;;2.28;;
54865;SDS011;40754;52.094;4.328;2022-08-19T13:00:34;3.90;;;2.30;;
54865;SDS011;40754;52.094;4.328;2022-08-19T13:02:59;4.88;;;2.30;;
54865;SDS011;40754;52.094;4.328;2022-08-19T13:05:26;6.90;;;2.80;;
54865;SDS011;40754;52.094;4.328;2022-08-19T13:07:54;5.28;;;2.10;;
54865;SDS011;40754;52.094;4.328;2022-08-19T13:10:21;11.13;;;2.20;;
54865;SDS011;40754;52.094;4.328;2022-08-19T13:12:48;4.95;;;2.60;;
54865;SDS011;40754;52.094;4.328;2022-08-19T13:15:15;4.38;;;1.75;;
54865;SDS011;40754;52.094;4.328;2022-08-19T13:17:45;3.83;;;2.13;;
54865;SDS011;40754;52.094;4.328;2022-08-19T13:20:13;4.25;;;1.88;;
54865;SDS011;40754;52.094;4.328;2022-08-19T13:22:43;3.05;;;2.00;;
54865;SDS011;40754;52.094;4.328;2022-08-19T13:25:10;3.78;;;1.92;;
54865;SDS011;40754;52.094;4.328;2022-08-19T13:27:37;4.32;;;1.90;;
54865;SDS011;40754;52.094;4.328;2022-08-19T13:30:04;2.40;;;1.58;;
54865;SDS011;40754;52.094;4.328;2022-08-19T13:32:53;3.03;;;1.67;;
54865;SDS011;40754;52.094;4.328;2022-08-19T13:35:49;4.63;;;2.35;;
54865;SDS011;40754;52.094;4.328;2022-08-19T13:38:22;3.47;;;2.05;;
54865;SDS011;40754;52.094;4.328;2022-08-19T13:40:54;3.67;;;1.85;;
54865;SDS011;40754;52.094;4.328;2022-08-19T13:43:22;3.97;;;1.83;;
54865;SDS011;40754;52.094;4.328;2022-08-19T13:45:52;2.17;;;1.70;;
54865;SDS011;40754;52.094;4.328;2022-08-19T13:48:31;3.05;;;2.22;;
54865;SDS011;40754;52.094;4.328;2022-08-19T13:50:59;2.03;;;1.73;;
54865;SDS011;40754;52.094;4.328;2022-08-19T13:53:27;3.38;;;2.33;;
54865;SDS011;40754;52.094;4.328;2022-08-19T13:55:57;4.32;;;2.72;;
54865;SDS011;40754;52.094;4.328;2022-08-19T13:58:23;4.78;;;2.33;;
54865;SDS011;40754;52.094;4.328;2022-08-19T14:00:59;6.75;;;2.40;;
54865;SDS011;40754;52.094;4.328;2022-08-19T14:03:26;7.35;;;1.98;;
54865;SDS011;40754;52.094;4.328;2022-08-19T14:05:51;3.40;;;2.03;;
54865;SDS011;40754;52.094;4.328;2022-08-19T14:08:20;4.43;;;2.47;;
54865;SDS011;40754;52.094;4.328;2022-08-19T14:10:45;4.20;;;1.92;;
54865;SDS011;40754;52.094;4.328;2022-08-19T14:13:15;4.82;;;2.15;;
54865;SDS011;40754;52.094;4.328;2022-08-19T14:15:43;4.05;;;2.20;;
54865;SDS011;40754;52.094;4.328;2022-08-19T14:18:09;3.28;;;2.22;;
54865;SDS011;40754;52.094;4.328;2022-08-19T14:20:35;4.45;;;2.25;;
54865;SDS011;40754;52.094;4.328;2022-08-19T14:23:02;4.90;;;2.90;;
54865;SDS011;40754;52.094;4.328;2022-08-19T14:25:29;6.45;;;3.20;;
54865;SDS011;40754;52.094;4.328;2022-08-19T14:27:56;4.63;;;2.75;;
54865;SDS011;40754;52.094;4.328;2022-08-19T14:30:23;5.72;;;3.08;;
54865;SDS011;40754;52.094;4.328;2022-08-19T14:32:53;6.50;;;3.17;;
54865;SDS011;40754;52.094;4.328;2022-08-19T14:35:20;3.97;;;2.55;;
54865;SDS011;40754;52.094;4.328;2022-08-19T14:37:47;5.97;;;3.10;;
54865;SDS011;40754;52.094;4.328;2022-08-19T14:40:14;8.32;;;3.38;;
54865;SDS011;40754;52.094;4.328;2022-08-19T14:42:41;6.03;;;3.10;;
54865;SDS011;40754;52.094;4.328;2022-08-19T14:45:07;5.22;;;2.90;;
54865;SDS011;40754;52.094;4.328;2022-08-19T14:47:34;9.80;;;2.97;;
54865;SDS011;40754;52.094;4.328;2022-08-19T14:49:59;7.75;;;2.85;;